sensor_id;sensor_type;location;lat;lon;timestamp;P1;durP1;ratioP1;P2;durP2;ratioP2
31768;SDS011;18342;52.132;21.048;2022-08-25T00:01:18;12.52;;;4.00;;
31768;SDS011;18342;52.132;21.048;2022-08-25T00:03:47;13.30;;;3.15;;
31768;SDS011;18342;52.132;21.048;2022-08-25T00:06:13;10.52;;;3.67;;
31768;SDS011;18342;52.132;21.048;2022-08-25T00:08:39;15.10;;;3.65;;
31768;SDS011;18342;52.132;21.048;2022-08-25T00:11:15;9.75;;;3.00;;
31768;SDS011;18342;52.132;21.048;2022-08-25T00:13:49;11.95;;;3.03;;
31768;SDS011;18342;52.132;21.048;2022-08-25T00:16:19;13.15;;;3.40;;
31768;SDS011;18342;52.132;21.048;2022-08-25T00:18:48;12.98;;;3.03;;
31768;SDS011;18342;52.132;21.048;2022-08-25T00:21:16;12.60;;;3.30;;
31768;SDS011;18342;52.132;21.048;2022-08-25T00:23:42;10.27;;;3.30;;
31768;SDS011;18342;52.132;21.048;2022-08-25T00:26:09;9.48;;;2.85;;
31768;SDS011;18342;52.132;21.048;2022-08-25T00:28:35;12.07;;;3.17;;
31768;SDS011;18342;52.132;21.048;2022-08-25T00:31:01;9.63;;;3.17;;
31768;SDS011;18342;52.132;21.048;2022-08-25T00:33:28;10.95;;;3.25;;
31768;SDS011;18342;52.132;21.048;2022-08-25T00:35:57;11.77;;;3.80;;
31768;SDS011;18342;52.132;21.048;2022-08-25T00:38:24;11.30;;;3.55;;
31768;SDS011;18342;52.132;21.048;2022-08-25T00:40:50;8.25;;;3.20;;
31768;SDS011;18342;52.132;21.048;2022-08-25T00:44:12;9.52;;;3.03;;
31768;SDS011;18342;52.132;21.048;2022-08-25T00:46:22;14.93;;;3.78;;
31768;SDS011;18342;52.132;21.048;2022-08-25T00:48:51;10.48;;;4.07;;
31768;SDS011;18342;52.132;21.048;2022-08-25T00:51:24;16.05;;;3.58;;
31768;SDS011;18342;52.132;21.048;2022-08-25T00:54:03;12.73;;;3.55;;
31768;SDS011;18342;52.132;21.048;2022-08-25T00:56:31;12.43;;;3.47;;
31768;SDS011;18342;52.132;21.048;2022-08-25T00:58:58;14.13;;;3.47;;
31768;SDS011;18342;52.132;21.048;2022-08-25T01:01:24;9.25;;;3.53;;
31768;SDS011;18342;52.132;21.048;2022-08-25T01:03:51;11.43;;;3.42;;
31768;SDS011;18342;52.132;21.048;2022-08-25T01:06:16;16.27;;;3.67;;
31768;SDS011;18342;52.132;21.048;2022-08-25T01:08:43;10.68;;;3.42;;
31768;SDS011;18342;52.132;21.048;2022-08-25T01:11:09;11.90;;;3.45;;
31768;SDS011;18342;52.132;21.048;2022-08-25T01:13:38;15.13;;;3.30;;
31768;SDS011;18342;52.132;21.048;2022-08-25T01:16:06;17.80;;;3.85;;
31768;SDS011;18342;52.132;21.048;2022-08-25T01:18:46;12.27;;;3.70;;
31768;SDS011;18342;52.132;21.048;2022-08-25T01:21:14;9.45;;;3.42;;
31768;SDS011;18342;52.132;21.048;2022-08-25T01:23:42;12.32;;;3.78;;
31768;SDS011;18342;52.132;21.048;2022-08-25T01:26:10;9.68;;;3.35;;
31768;SDS011;18342;52.132;21.048;2022-08-25T01:28:42;13.50;;;3.90;;
31768;SDS011;18342;52.132;21.048;2022-08-25T01:31:29;13.13;;;3.90;;
31768;SDS011;18342;52.132;21.048;2022-08-25T01:33:56;17.35;;;4.28;;
31768;SDS011;18342;52.132;21.048;2022-08-25T01:36:23;9.15;;;3.53;;
31768;SDS011;18342;52.132;21.048;2022-08-25T01:38:49;13.90;;;4.22;;
31768;SDS011;18342;52.132;21.048;2022-08-25T01:43:59;13.95;;;4.00;;
31768;SDS011;18342;52.132;21.048;2022-08-25T01:46:26;13.23;;;3.75;;
31768;SDS011;18342;52.132;21.048;2022-08-25T01:48:51;12.63;;;4.20;;
31768;SDS011;18342;52.132;21.048;2022-08-25T01:51:22;9.35;;;3.88;;
31768;SDS011;18342;52.132;21.048;2022-08-25T01:53:49;17.23;;;4.07;;
31768;SDS011;18342;52.132;21.048;2022-08-25T01:56:15;16.45;;;4.45;;
31768;SDS011;18342;52.132;21.048;2022-08-25T01:58:43;17.50;;;4.47;;
31768;SDS011;18342;52.132;21.048;2022-08-25T02:01:15;12.25;;;3.50;;
31768;SDS011;18342;52.132;21.048;2022-08-25T02:03:43;15.57;;;4.55;;
31768;SDS011;18342;52.132;21.048;2022-08-25T02:06:11;15.38;;;4.38;;
31768;SDS011;18342;52.132;21.048;2022-08-25T02:08:43;11.20;;;4.32;;
31768;SDS011;18342;52.132;21.048;2022-08-25T02:11:10;15.63;;;3.63;;
31768;SDS011;18342;52.132;21.048;2022-08-25T02:13:38;18.92;;;4.93;;
31768;SDS011;18342;52.132;21.048;2022-08-25T02:16:04;16.80;;;4.63;;
31768;SDS011;18342;52.132;21.048;2022-08-25T02:18:31;17.80;;;4.55;;
31768;SDS011;18342;52.132;21.048;2022-08-25T02:20:56;14.73;;;4.68;;
31768;SDS011;18342;52.132;21.048;2022-08-25T02:23:22;17.85;;;4.90;;
31768;SDS011;18342;52.132;21.048;2022-08-25T02:25:48;20.58;;;5.03;;
31768;SDS011;18342;52.132;21.048;2022-08-25T02:28:14;17.40;;;4.60;;
31768;SDS011;18342;52.132;21.048;2022-08-25T02:30:40;16.65;;;4.70;;
31768;SDS011;18342;52.132;21.048;2022-08-25T02:33:06;16.08;;;4.53;;
31768;SDS011;18342;52.132;21.048;2022-08-25T02:35:33;13.57;;;4.57;;
31768;SDS011;18342;52.132;21.048;2022-08-25T02:37:59;14.10;;;4.15;;
31768;SDS011;18342;52.132;21.048;2022-08-25T02:40:25;15.75;;;4.25;;
31768;SDS011;18342;52.132;21.048;2022-08-25T02:42:51;18.80;;;5.18;;
31768;SDS011;18342;52.132;21.048;2022-08-25T02:45:17;14.32;;;4.50;;
31768;SDS011;18342;52.132;21.048;2022-08-25T02:47:43;14.00;;;4.15;;
31768;SDS011;18342;52.132;21.048;2022-08-25T02:50:09;13.20;;;4.85;;
31768;SDS011;18342;52.132;21.048;2022-08-25T02:52:35;16.75;;;4.90;;
31768;SDS011;18342;52.132;21.048;2022-08-25T02:55:03;20.70;;;5.47;;
31768;SDS011;18342;52.132;21.048;2022-08-25T02:57:30;16.98;;;5.10;;
31768;SDS011;18342;52.132;21.048;2022-08-25T02:59:56;11.32;;;4.70;;
31768;SDS011;18342;52.132;21.048;2022-08-25T03:02:23;11.88;;;4.43;;
31768;SDS011;18342;52.132;21.048;2022-08-25T03:04:50;16.13;;;6.00;;
31768;SDS011;18342;52.132;21.048;2022-08-25T03:07:17;17.48;;;4.88;;
31768;SDS011;18342;52.132;21.048;2022-08-25T03:09:44;17.25;;;5.32;;
31768;SDS011;18342;52.132;21.048;2022-08-25T03:12:10;20.50;;;5.53;;
31768;SDS011;18342;52.132;21.048;2022-08-25T03:14:36;17.45;;;5.13;;
31768;SDS011;18342;52.132;21.048;2022-08-25T03:17:05;25.40;;;5.38;;
31768;SDS011;18342;52.132;21.048;2022-08-25T03:19:32;15.52;;;5.22;;
31768;SDS011;18342;52.132;21.048;2022-08-25T03:21:57;13.93;;;4.72;;
31768;SDS011;18342;52.132;21.048;2022-08-25T03:24:23;18.73;;;4.97;;
31768;SDS011;18342;52.132;21.048;2022-08-25T03:26:50;13.07;;;4.85;;
31768;SDS011;18342;52.132;21.048;2022-08-25T03:29:26;19.73;;;5.53;;
31768;SDS011;18342;52.132;21.048;2022-08-25T03:31:54;15.15;;;5.38;;
31768;SDS011;18342;52.132;21.048;2022-08-25T03:34:22;17.08;;;5.75;;
31768;SDS011;18342;52.132;21.048;2022-08-25T03:36:50;24.13;;;5.25;;
31768;SDS011;18342;52.132;21.048;2022-08-25T03:39:17;22.60;;;6.30;;
31768;SDS011;18342;52.132;21.048;2022-08-25T03:41:44;25.58;;;5.72;;
31768;SDS011;18342;52.132;21.048;2022-08-25T03:44:11;16.55;;;5.00;;
31768;SDS011;18342;52.132;21.048;2022-08-25T03:46:41;18.80;;;5.93;;
31768;SDS011;18342;52.132;21.048;2022-08-25T03:49:11;17.58;;;5.53;;
31768;SDS011;18342;52.132;21.048;2022-08-25T03:51:44;14.70;;;5.45;;
31768;SDS011;18342;52.132;21.048;2022-08-25T03:54:16;15.15;;;5.20;;
31768;SDS011;18342;52.132;21.048;2022-08-25T03:56:44;22.20;;;6.00;;
31768;SDS011;18342;52.132;21.048;2022-08-25T03:59:10;16.67;;;5.22;;
31768;SDS011;18342;52.132;21.048;2022-08-25T04:01:37;17.65;;;6.15;;
31768;SDS011;18342;52.132;21.048;2022-08-25T04:04:05;21.95;;;5.57;;
31768;SDS011;18342;52.132;21.048;2022-08-25T04:06:32;18.17;;;5.70;;
31768;SDS011;18342;52.132;21.048;2022-08-25T04:08:58;22.00;;;6.45;;
31768;SDS011;18342;52.132;21.048;2022-08-25T04:11:24;17.33;;;5.97;;
31768;SDS011;18342;52.132;21.048;2022-08-25T04:13:51;16.73;;;5.55;;
31768;SDS011;18342;52.132;21.048;2022-08-25T04:16:21;22.00;;;5.60;;
31768;SDS011;18342;52.132;21.048;2022-08-25T04:18:49;14.23;;;5.30;;
31768;SDS011;18342;52.132;21.048;2022-08-25T04:21:16;18.92;;;6.10;;
31768;SDS011;18342;52.132;21.048;2022-08-25T04:23:43;17.20;;;5.75;;
31768;SDS011;18342;52.132;21.048;2022-08-25T04:26:13;31.10;;;7.07;;
31768;SDS011;18342;52.132;21.048;2022-08-25T04:28:41;26.38;;;6.82;;
31768;SDS011;18342;52.132;21.048;2022-08-25T04:31:07;25.65;;;6.80;;
31768;SDS011;18342;52.132;21.048;2022-08-25T04:33:35;22.13;;;6.30;;
31768;SDS011;18342;52.132;21.048;2022-08-25T04:36:02;24.30;;;6.78;;
31768;SDS011;18342;52.132;21.048;2022-08-25T04:38:29;28.60;;;7.03;;
31768;SDS011;18342;52.132;21.048;2022-08-25T04:40:59;29.90;;;7.30;;
31768;SDS011;18342;52.132;21.048;2022-08-25T04:43:28;23.48;;;6.93;;
31768;SDS011;18342;52.132;21.048;2022-08-25T04:45:54;25.70;;;7.70;;
31768;SDS011;18342;52.132;21.048;2022-08-25T04:48:20;30.08;;;8.15;;
31768;SDS011;18342;52.132;21.048;2022-08-25T04:50:46;28.50;;;7.53;;
31768;SDS011;18342;52.132;21.048;2022-08-25T04:53:12;28.42;;;7.40;;
31768;SDS011;18342;52.132;21.048;2022-08-25T04:55:42;25.73;;;7.72;;
31768;SDS011;18342;52.132;21.048;2022-08-25T04:58:09;29.02;;;7.03;;
31768;SDS011;18342;52.132;21.048;2022-08-25T05:00:35;26.15;;;7.65;;
31768;SDS011;18342;52.132;21.048;2022-08-25T05:03:02;28.23;;;7.63;;
31768;SDS011;18342;52.132;21.048;2022-08-25T05:05:28;27.30;;;7.95;;
31768;SDS011;18342;52.132;21.048;2022-08-25T05:07:55;24.75;;;7.45;;
31768;SDS011;18342;52.132;21.048;2022-08-25T05:10:21;26.98;;;7.82;;
31768;SDS011;18342;52.132;21.048;2022-08-25T05:12:46;23.40;;;7.32;;
31768;SDS011;18342;52.132;21.048;2022-08-25T05:15:12;30.83;;;7.65;;
31768;SDS011;18342;52.132;21.048;2022-08-25T05:17:56;29.92;;;7.50;;
31768;SDS011;18342;52.132;21.048;2022-08-25T05:20:22;37.25;;;8.50;;
31768;SDS011;18342;52.132;21.048;2022-08-25T05:22:48;35.60;;;7.85;;
31768;SDS011;18342;52.132;21.048;2022-08-25T05:25:14;33.17;;;8.00;;
31768;SDS011;18342;52.132;21.048;2022-08-25T05:27:41;22.50;;;7.53;;
31768;SDS011;18342;52.132;21.048;2022-08-25T05:30:09;29.13;;;7.90;;
31768;SDS011;18342;52.132;21.048;2022-08-25T05:32:35;25.30;;;8.05;;
31768;SDS011;18342;52.132;21.048;2022-08-25T05:35:02;27.40;;;7.82;;
31768;SDS011;18342;52.132;21.048;2022-08-25T05:37:28;18.88;;;7.03;;
31768;SDS011;18342;52.132;21.048;2022-08-25T05:39:54;26.17;;;7.45;;
31768;SDS011;18342;52.132;21.048;2022-08-25T05:42:19;22.13;;;6.70;;
31768;SDS011;18342;52.132;21.048;2022-08-25T05:44:46;31.85;;;7.68;;
31768;SDS011;18342;52.132;21.048;2022-08-25T05:47:12;25.92;;;7.28;;
31768;SDS011;18342;52.132;21.048;2022-08-25T05:49:38;20.65;;;7.40;;
31768;SDS011;18342;52.132;21.048;2022-08-25T05:52:03;29.23;;;8.07;;
31768;SDS011;18342;52.132;21.048;2022-08-25T05:54:29;39.85;;;7.97;;
31768;SDS011;18342;52.132;21.048;2022-08-25T05:56:55;30.15;;;8.00;;
31768;SDS011;18342;52.132;21.048;2022-08-25T05:59:21;27.98;;;7.88;;
31768;SDS011;18342;52.132;21.048;2022-08-25T06:01:47;24.75;;;7.53;;
31768;SDS011;18342;52.132;21.048;2022-08-25T06:04:32;26.23;;;8.10;;
31768;SDS011;18342;52.132;21.048;2022-08-25T06:06:57;25.17;;;7.65;;
31768;SDS011;18342;52.132;21.048;2022-08-25T06:09:23;25.40;;;7.65;;
31768;SDS011;18342;52.132;21.048;2022-08-25T06:11:49;32.85;;;8.50;;
31768;SDS011;18342;52.132;21.048;2022-08-25T06:14:15;30.10;;;8.23;;
31768;SDS011;18342;52.132;21.048;2022-08-25T06:16:41;26.77;;;7.53;;
31768;SDS011;18342;52.132;21.048;2022-08-25T06:19:07;34.72;;;8.18;;
31768;SDS011;18342;52.132;21.048;2022-08-25T06:21:34;24.77;;;7.40;;
31768;SDS011;18342;52.132;21.048;2022-08-25T06:24:01;23.85;;;7.93;;
31768;SDS011;18342;52.132;21.048;2022-08-25T06:26:27;28.67;;;8.30;;
31768;SDS011;18342;52.132;21.048;2022-08-25T06:28:52;38.08;;;8.73;;
31768;SDS011;18342;52.132;21.048;2022-08-25T06:31:18;34.00;;;7.93;;
31768;SDS011;18342;52.132;21.048;2022-08-25T06:33:46;25.90;;;7.55;;
31768;SDS011;18342;52.132;21.048;2022-08-25T06:36:12;28.67;;;8.10;;
31768;SDS011;18342;52.132;21.048;2022-08-25T06:38:39;21.95;;;7.10;;
31768;SDS011;18342;52.132;21.048;2022-08-25T06:41:05;25.55;;;7.43;;
31768;SDS011;18342;52.132;21.048;2022-08-25T06:43:34;24.90;;;7.43;;
31768;SDS011;18342;52.132;21.048;2022-08-25T06:48:39;26.83;;;7.53;;
31768;SDS011;18342;52.132;21.048;2022-08-25T06:51:06;27.95;;;8.23;;
31768;SDS011;18342;52.132;21.048;2022-08-25T06:53:33;30.40;;;7.95;;
31768;SDS011;18342;52.132;21.048;2022-08-25T06:55:59;31.92;;;8.18;;
31768;SDS011;18342;52.132;21.048;2022-08-25T06:58:25;23.05;;;8.13;;
31768;SDS011;18342;52.132;21.048;2022-08-25T07:00:51;31.25;;;8.32;;
31768;SDS011;18342;52.132;21.048;2022-08-25T07:03:17;28.65;;;7.63;;
31768;SDS011;18342;52.132;21.048;2022-08-25T07:05:50;23.77;;;7.80;;
31768;SDS011;18342;52.132;21.048;2022-08-25T07:08:17;26.10;;;8.70;;
31768;SDS011;18342;52.132;21.048;2022-08-25T07:10:43;25.60;;;7.15;;
31768;SDS011;18342;52.132;21.048;2022-08-25T07:13:09;33.45;;;8.48;;
31768;SDS011;18342;52.132;21.048;2022-08-25T07:15:38;24.45;;;7.03;;
31768;SDS011;18342;52.132;21.048;2022-08-25T07:18:04;25.42;;;7.10;;
31768;SDS011;18342;52.132;21.048;2022-08-25T07:20:32;22.40;;;7.07;;
31768;SDS011;18342;52.132;21.048;2022-08-25T07:23:01;29.95;;;8.20;;
31768;SDS011;18342;52.132;21.048;2022-08-25T07:25:27;31.70;;;7.00;;
31768;SDS011;18342;52.132;21.048;2022-08-25T07:27:53;32.90;;;7.53;;
31768;SDS011;18342;52.132;21.048;2022-08-25T07:30:18;21.73;;;7.35;;
31768;SDS011;18342;52.132;21.048;2022-08-25T07:32:44;22.65;;;7.13;;
31768;SDS011;18342;52.132;21.048;2022-08-25T07:35:10;23.10;;;7.50;;
31768;SDS011;18342;52.132;21.048;2022-08-25T07:37:39;26.10;;;6.82;;
31768;SDS011;18342;52.132;21.048;2022-08-25T07:40:07;27.13;;;7.57;;
31768;SDS011;18342;52.132;21.048;2022-08-25T07:42:35;26.80;;;7.30;;
31768;SDS011;18342;52.132;21.048;2022-08-25T07:45:02;25.25;;;6.85;;
31768;SDS011;18342;52.132;21.048;2022-08-25T07:47:29;20.85;;;7.35;;
31768;SDS011;18342;52.132;21.048;2022-08-25T07:49:55;33.42;;;7.63;;
31768;SDS011;18342;52.132;21.048;2022-08-25T07:52:21;19.52;;;7.13;;
31768;SDS011;18342;52.132;21.048;2022-08-25T07:54:47;30.63;;;8.07;;
31768;SDS011;18342;52.132;21.048;2022-08-25T07:57:13;28.15;;;7.53;;
31768;SDS011;18342;52.132;21.048;2022-08-25T07:59:39;22.90;;;8.05;;
31768;SDS011;18342;52.132;21.048;2022-08-25T08:02:06;22.75;;;7.15;;
31768;SDS011;18342;52.132;21.048;2022-08-25T08:04:34;19.73;;;7.32;;
31768;SDS011;18342;52.132;21.048;2022-08-25T08:07:01;35.35;;;7.63;;
31768;SDS011;18342;52.132;21.048;2022-08-25T08:09:26;30.30;;;7.93;;
31768;SDS011;18342;52.132;21.048;2022-08-25T08:11:54;21.98;;;7.40;;
31768;SDS011;18342;52.132;21.048;2022-08-25T08:14:21;35.65;;;7.75;;
31768;SDS011;18342;52.132;21.048;2022-08-25T08:16:47;20.92;;;8.20;;
31768;SDS011;18342;52.132;21.048;2022-08-25T08:19:13;22.33;;;7.15;;
31768;SDS011;18342;52.132;21.048;2022-08-25T08:21:40;20.27;;;7.30;;
31768;SDS011;18342;52.132;21.048;2022-08-25T08:24:07;22.10;;;7.22;;
31768;SDS011;18342;52.132;21.048;2022-08-25T08:26:33;19.25;;;6.65;;
31768;SDS011;18342;52.132;21.048;2022-08-25T08:28:59;18.08;;;7.28;;
31768;SDS011;18342;52.132;21.048;2022-08-25T08:31:25;24.92;;;7.40;;
31768;SDS011;18342;52.132;21.048;2022-08-25T08:33:52;26.50;;;7.28;;
31768;SDS011;18342;52.132;21.048;2022-08-25T08:36:20;23.70;;;7.00;;
31768;SDS011;18342;52.132;21.048;2022-08-25T08:38:46;30.63;;;8.23;;
31768;SDS011;18342;52.132;21.048;2022-08-25T08:46:45;23.10;;;7.00;;
31768;SDS011;18342;52.132;21.048;2022-08-25T08:49:28;22.48;;;7.00;;
31768;SDS011;18342;52.132;21.048;2022-08-25T08:51:58;27.20;;;6.68;;
31768;SDS011;18342;52.132;21.048;2022-08-25T08:54:25;25.55;;;6.50;;
31768;SDS011;18342;52.132;21.048;2022-08-25T08:57:15;26.90;;;6.95;;
31768;SDS011;18342;52.132;21.048;2022-08-25T08:59:47;20.60;;;6.68;;
31768;SDS011;18342;52.132;21.048;2022-08-25T09:02:22;22.35;;;6.85;;
31768;SDS011;18342;52.132;21.048;2022-08-25T09:05:02;16.58;;;6.95;;
31768;SDS011;18342;52.132;21.048;2022-08-25T09:07:34;18.60;;;7.10;;
31768;SDS011;18342;52.132;21.048;2022-08-25T09:10:05;17.50;;;6.82;;
31768;SDS011;18342;52.132;21.048;2022-08-25T09:12:40;20.85;;;6.63;;
31768;SDS011;18342;52.132;21.048;2022-08-25T09:18:41;25.05;;;7.78;;
31768;SDS011;18342;52.132;21.048;2022-08-25T09:21:13;17.88;;;6.70;;
31768;SDS011;18342;52.132;21.048;2022-08-25T09:26:32;24.25;;;6.47;;
31768;SDS011;18342;52.132;21.048;2022-08-25T09:29:21;20.92;;;6.88;;
31768;SDS011;18342;52.132;21.048;2022-08-25T09:31:48;19.60;;;6.60;;
31768;SDS011;18342;52.132;21.048;2022-08-25T09:34:18;24.23;;;6.68;;
31768;SDS011;18342;52.132;21.048;2022-08-25T09:36:46;20.52;;;6.38;;
31768;SDS011;18342;52.132;21.048;2022-08-25T09:39:14;18.90;;;5.47;;
31768;SDS011;18342;52.132;21.048;2022-08-25T09:44:24;17.80;;;5.28;;
31768;SDS011;18342;52.132;21.048;2022-08-25T09:49:45;18.90;;;5.10;;
31768;SDS011;18342;52.132;21.048;2022-08-25T09:54:56;15.48;;;5.22;;
31768;SDS011;18342;52.132;21.048;2022-08-25T09:57:51;11.95;;;5.30;;
31768;SDS011;18342;52.132;21.048;2022-08-25T10:00:25;18.10;;;5.45;;
31768;SDS011;18342;52.132;21.048;2022-08-25T10:05:26;18.00;;;5.22;;
31768;SDS011;18342;52.132;21.048;2022-08-25T10:07:56;16.45;;;3.95;;
31768;SDS011;18342;52.132;21.048;2022-08-25T10:13:01;12.25;;;4.15;;
31768;SDS011;18342;52.132;21.048;2022-08-25T10:15:36;15.40;;;4.50;;
31768;SDS011;18342;52.132;21.048;2022-08-25T10:18:18;13.65;;;4.60;;
31768;SDS011;18342;52.132;21.048;2022-08-25T10:21:12;10.55;;;3.95;;
31768;SDS011;18342;52.132;21.048;2022-08-25T10:29:18;15.68;;;3.70;;
31768;SDS011;18342;52.132;21.048;2022-08-25T10:34:36;9.38;;;3.42;;
31768;SDS011;18342;52.132;21.048;2022-08-25T10:37:26;13.45;;;3.33;;
31768;SDS011;18342;52.132;21.048;2022-08-25T10:45:31;17.10;;;3.40;;
31768;SDS011;18342;52.132;21.048;2022-08-25T11:03:48;14.35;;;3.00;;
31768;SDS011;18342;52.132;21.048;2022-08-25T11:09:26;14.50;;;3.28;;
31768;SDS011;18342;52.132;21.048;2022-08-25T11:14:41;8.25;;;3.25;;
31768;SDS011;18342;52.132;21.048;2022-08-25T11:17:23;9.30;;;2.95;;
31768;SDS011;18342;52.132;21.048;2022-08-25T11:20:03;15.57;;;3.55;;
31768;SDS011;18342;52.132;21.048;2022-08-25T11:22:39;6.53;;;3.15;;
31768;SDS011;18342;52.132;21.048;2022-08-25T11:25:10;19.20;;;4.38;;
31768;SDS011;18342;52.132;21.048;2022-08-25T11:27:48;9.32;;;2.85;;
31768;SDS011;18342;52.132;21.048;2022-08-25T11:30:21;9.23;;;3.47;;
31768;SDS011;18342;52.132;21.048;2022-08-25T11:32:48;8.13;;;3.00;;
31768;SDS011;18342;52.132;21.048;2022-08-25T11:35:17;8.95;;;3.10;;
31768;SDS011;18342;52.132;21.048;2022-08-25T11:43:44;8.82;;;3.30;;
31768;SDS011;18342;52.132;21.048;2022-08-25T11:51:48;10.85;;;3.20;;
31768;SDS011;18342;52.132;21.048;2022-08-25T11:54:17;12.65;;;2.65;;
31768;SDS011;18342;52.132;21.048;2022-08-25T12:04:52;10.70;;;3.45;;
31768;SDS011;18342;52.132;21.048;2022-08-25T12:07:21;9.75;;;3.15;;
31768;SDS011;18342;52.132;21.048;2022-08-25T12:17:42;6.43;;;2.90;;
31768;SDS011;18342;52.132;21.048;2022-08-25T12:20:08;13.30;;;3.30;;
31768;SDS011;18342;52.132;21.048;2022-08-25T12:25:05;8.80;;;3.25;;
31768;SDS011;18342;52.132;21.048;2022-08-25T12:30:40;6.90;;;3.33;;
31768;SDS011;18342;52.132;21.048;2022-08-25T12:36:03;12.32;;;3.00;;
31768;SDS011;18342;52.132;21.048;2022-08-25T12:38:32;4.80;;;2.92;;
31768;SDS011;18342;52.132;21.048;2022-08-25T12:41:15;14.70;;;2.92;;
31768;SDS011;18342;52.132;21.048;2022-08-25T12:43:50;4.50;;;3.20;;
31768;SDS011;18342;52.132;21.048;2022-08-25T12:54:24;8.43;;;3.45;;
31768;SDS011;18342;52.132;21.048;2022-08-25T12:56:57;11.98;;;3.40;;
31768;SDS011;18342;52.132;21.048;2022-08-25T12:59:37;9.02;;;3.88;;
31768;SDS011;18342;52.132;21.048;2022-08-25T13:21:03;6.03;;;3.05;;
31768;SDS011;18342;52.132;21.048;2022-08-25T13:23:30;8.05;;;3.47;;
31768;SDS011;18342;52.132;21.048;2022-08-25T13:26:01;9.80;;;3.33;;
31768;SDS011;18342;52.132;21.048;2022-08-25T13:28:29;5.22;;;3.17;;
31768;SDS011;18342;52.132;21.048;2022-08-25T13:31:04;9.73;;;3.10;;
31768;SDS011;18342;52.132;21.048;2022-08-25T13:33:30;8.32;;;3.10;;
31768;SDS011;18342;52.132;21.048;2022-08-25T13:35:57;8.32;;;3.55;;
31768;SDS011;18342;52.132;21.048;2022-08-25T13:38:45;6.70;;;3.13;;
31768;SDS011;18342;52.132;21.048;2022-08-25T13:41:20;5.45;;;2.83;;
31768;SDS011;18342;52.132;21.048;2022-08-25T13:43:48;12.55;;;3.70;;
31768;SDS011;18342;52.132;21.048;2022-08-25T13:46:18;9.02;;;3.53;;
31768;SDS011;18342;52.132;21.048;2022-08-25T13:48:47;5.78;;;3.03;;
31768;SDS011;18342;52.132;21.048;2022-08-25T13:51:23;8.13;;;3.10;;
31768;SDS011;18342;52.132;21.048;2022-08-25T13:53:59;5.82;;;2.80;;
31768;SDS011;18342;52.132;21.048;2022-08-25T13:59:01;8.65;;;2.60;;
31768;SDS011;18342;52.132;21.048;2022-08-25T14:01:32;8.50;;;3.15;;
31768;SDS011;18342;52.132;21.048;2022-08-25T14:04:24;10.85;;;2.75;;
31768;SDS011;18342;52.132;21.048;2022-08-25T14:07:04;7.18;;;3.28;;
31768;SDS011;18342;52.132;21.048;2022-08-25T14:09:58;3.40;;;2.80;;
31768;SDS011;18342;52.132;21.048;2022-08-25T14:12:45;8.98;;;3.20;;
31768;SDS011;18342;52.132;21.048;2022-08-25T14:17:41;6.60;;;2.80;;
31768;SDS011;18342;52.132;21.048;2022-08-25T14:20:17;7.07;;;3.53;;
31768;SDS011;18342;52.132;21.048;2022-08-25T14:22:53;7.15;;;2.90;;
31768;SDS011;18342;52.132;21.048;2022-08-25T14:25:21;12.38;;;3.17;;
31768;SDS011;18342;52.132;21.048;2022-08-25T14:27:53;5.07;;;2.58;;
31768;SDS011;18342;52.132;21.048;2022-08-25T14:30:23;6.47;;;3.03;;
31768;SDS011;18342;52.132;21.048;2022-08-25T14:32:50;8.07;;;3.25;;
31768;SDS011;18342;52.132;21.048;2022-08-25T14:35:16;8.32;;;2.70;;
31768;SDS011;18342;52.132;21.048;2022-08-25T14:37:42;7.63;;;2.75;;
31768;SDS011;18342;52.132;21.048;2022-08-25T14:40:09;9.13;;;3.20;;
31768;SDS011;18342;52.132;21.048;2022-08-25T14:42:38;8.50;;;2.97;;
31768;SDS011;18342;52.132;21.048;2022-08-25T14:45:04;8.27;;;2.55;;
31768;SDS011;18342;52.132;21.048;2022-08-25T14:47:30;6.78;;;2.78;;
31768;SDS011;18342;52.132;21.048;2022-08-25T14:49:56;6.70;;;2.88;;
31768;SDS011;18342;52.132;21.048;2022-08-25T14:52:26;9.70;;;2.78;;
31768;SDS011;18342;52.132;21.048;2022-08-25T14:54:54;5.90;;;2.90;;
31768;SDS011;18342;52.132;21.048;2022-08-25T14:57:21;10.68;;;2.60;;
31768;SDS011;18342;52.132;21.048;2022-08-25T14:59:47;3.58;;;2.35;;
31768;SDS011;18342;52.132;21.048;2022-08-25T15:02:14;8.35;;;2.70;;
31768;SDS011;18342;52.132;21.048;2022-08-25T15:04:50;9.20;;;2.97;;
31768;SDS011;18342;52.132;21.048;2022-08-25T15:07:18;7.00;;;2.70;;
31768;SDS011;18342;52.132;21.048;2022-08-25T15:10:02;6.05;;;2.47;;
31768;SDS011;18342;52.132;21.048;2022-08-25T15:12:28;7.22;;;2.78;;
31768;SDS011;18342;52.132;21.048;2022-08-25T15:14:55;6.40;;;3.20;;
31768;SDS011;18342;52.132;21.048;2022-08-25T15:17:22;6.88;;;2.67;;
31768;SDS011;18342;52.132;21.048;2022-08-25T15:19:47;4.88;;;2.65;;
31768;SDS011;18342;52.132;21.048;2022-08-25T15:22:13;7.00;;;2.65;;
31768;SDS011;18342;52.132;21.048;2022-08-25T15:24:39;8.65;;;2.72;;
31768;SDS011;18342;52.132;21.048;2022-08-25T15:27:05;6.07;;;2.55;;
31768;SDS011;18342;52.132;21.048;2022-08-25T15:29:33;8.48;;;2.38;;
31768;SDS011;18342;52.132;21.048;2022-08-25T15:32:00;6.45;;;2.60;;
31768;SDS011;18342;52.132;21.048;2022-08-25T15:34:27;6.90;;;2.65;;
31768;SDS011;18342;52.132;21.048;2022-08-25T15:36:55;9.10;;;2.60;;
31768;SDS011;18342;52.132;21.048;2022-08-25T15:39:22;4.22;;;2.30;;
31768;SDS011;18342;52.132;21.048;2022-08-25T15:41:48;7.75;;;2.40;;
31768;SDS011;18342;52.132;21.048;2022-08-25T15:44:16;12.25;;;2.75;;
31768;SDS011;18342;52.132;21.048;2022-08-25T15:46:42;6.65;;;2.30;;
31768;SDS011;18342;52.132;21.048;2022-08-25T15:49:08;9.25;;;2.30;;
31768;SDS011;18342;52.132;21.048;2022-08-25T15:51:34;16.90;;;3.42;;
31768;SDS011;18342;52.132;21.048;2022-08-25T15:54:00;6.53;;;2.42;;
31768;SDS011;18342;52.132;21.048;2022-08-25T15:56:26;9.52;;;2.20;;
31768;SDS011;18342;52.132;21.048;2022-08-25T15:58:52;6.22;;;2.58;;
31768;SDS011;18342;52.132;21.048;2022-08-25T16:01:20;7.85;;;2.35;;
31768;SDS011;18342;52.132;21.048;2022-08-25T16:03:51;8.75;;;2.90;;
31768;SDS011;18342;52.132;21.048;2022-08-25T16:06:18;9.00;;;2.53;;
31768;SDS011;18342;52.132;21.048;2022-08-25T16:08:44;6.38;;;2.13;;
31768;SDS011;18342;52.132;21.048;2022-08-25T16:11:23;6.57;;;2.35;;
31768;SDS011;18342;52.132;21.048;2022-08-25T16:13:50;7.57;;;2.05;;
31768;SDS011;18342;52.132;21.048;2022-08-25T16:16:17;5.35;;;2.35;;
31768;SDS011;18342;52.132;21.048;2022-08-25T16:18:44;9.30;;;2.20;;
31768;SDS011;18342;52.132;21.048;2022-08-25T16:21:11;6.25;;;2.22;;
31768;SDS011;18342;52.132;21.048;2022-08-25T16:23:39;9.10;;;2.30;;
31768;SDS011;18342;52.132;21.048;2022-08-25T16:26:06;6.82;;;2.13;;
31768;SDS011;18342;52.132;21.048;2022-08-25T16:28:33;6.03;;;2.20;;
31768;SDS011;18342;52.132;21.048;2022-08-25T16:31:00;5.57;;;2.03;;
31768;SDS011;18342;52.132;21.048;2022-08-25T16:33:26;7.15;;;2.25;;
31768;SDS011;18342;52.132;21.048;2022-08-25T16:35:51;6.65;;;2.00;;
31768;SDS011;18342;52.132;21.048;2022-08-25T16:38:17;5.50;;;2.10;;
31768;SDS011;18342;52.132;21.048;2022-08-25T16:40:43;5.18;;;1.98;;
31768;SDS011;18342;52.132;21.048;2022-08-25T16:43:09;7.40;;;2.17;;
31768;SDS011;18342;52.132;21.048;2022-08-25T16:45:36;8.98;;;2.20;;
31768;SDS011;18342;52.132;21.048;2022-08-25T16:48:02;8.40;;;2.25;;
31768;SDS011;18342;52.132;21.048;2022-08-25T16:50:29;5.05;;;2.20;;